createdAt,value
2023-01-02T00:02:16.121Z,5.11
2023-01-02T00:04:42.600Z,5.11
2023-01-02T00:07:10.959Z,5.12
2023-01-02T00:09:37.908Z,5.16
2023-01-02T00:12:04.395Z,5.16
2023-01-02T00:14:30.881Z,5.14
2023-01-02T00:16:57.324Z,5.15
2023-01-02T00:19:23.793Z,5.17
2023-01-02T00:21:50.222Z,5.20
2023-01-02T00:24:16.851Z,5.19
2023-01-02T00:26:43.297Z,5.18
2023-01-02T00:29:09.826Z,5.16
2023-01-02T00:31:36.298Z,5.10
2023-01-02T00:34:02.737Z,5.06
2023-01-02T00:36:29.249Z,5.07
2023-01-02T00:38:56.543Z,5.08
2023-01-02T00:41:23.748Z,5.09
2023-01-02T00:43:50.272Z,5.09
2023-01-02T00:46:18.718Z,5.10
2023-01-02T00:48:45.246Z,5.07
2023-01-02T00:51:11.671Z,5.01
2023-01-02T00:53:38.126Z,5.01
2023-01-02T00:56:04.693Z,5.05
2023-01-02T00:58:31.205Z,5.03
2023-01-02T01:00:57.699Z,5.02
2023-01-02T01:03:24.185Z,5.04
2023-01-02T01:05:50.685Z,5.04
2023-01-02T01:08:17.139Z,5.06
2023-01-02T01:10:43.585Z,5.04
2023-01-02T01:13:10.050Z,5.04
2023-01-02T01:15:36.587Z,5.04
2023-01-02T01:18:03.158Z,5.02
2023-01-02T01:20:29.653Z,5.04
2023-01-02T01:22:56.089Z,4.99
2023-01-02T01:25:22.639Z,4.98
2023-01-02T01:27:52.171Z,4.99
2023-01-02T01:30:18.626Z,5.00
2023-01-02T01:32:45.060Z,5.01
2023-01-02T01:35:11.487Z,5.05
2023-01-02T01:37:39.565Z,5.07
2023-01-02T01:40:06.440Z,5.05
2023-01-02T01:42:33.854Z,5.03
2023-01-02T01:45:00.334Z,5.02
2023-01-02T01:47:39.024Z,5.04
2023-01-02T01:50:11.286Z,5.04
2023-01-02T01:52:41.080Z,5.04
2023-01-02T01:55:07.650Z,5.01
2023-01-02T01:57:37.489Z,5.02
2023-01-02T02:00:04.557Z,5.02
2023-01-02T02:02:32.679Z,5.04
2023-01-02T02:05:00.784Z,5.02
2023-01-02T02:07:27.630Z,5.02
2023-01-02T02:09:57.687Z,5.00
2023-01-02T02:12:28.053Z,4.99
2023-01-02T02:14:54.854Z,4.97
2023-01-02T02:17:42.326Z,4.96
2023-01-02T02:20:11.617Z,4.96
2023-01-02T02:22:50.430Z,4.97
2023-01-02T02:25:22.903Z,4.95
2023-01-02T02:28:08.269Z,4.97
2023-01-02T02:30:37.654Z,4.97
2023-01-02T02:33:12.324Z,4.95
2023-01-02T02:35:38.894Z,4.94
2023-01-02T02:38:08.296Z,4.92
2023-01-02T02:40:52.782Z,4.92
2023-01-02T02:43:22.010Z,4.90
2023-01-02T02:45:54.836Z,4.90
2023-01-02T02:48:26.147Z,4.91
2023-01-02T02:50:59.163Z,4.94
2023-01-02T02:53:29.942Z,4.91
2023-01-02T02:55:58.315Z,4.90
2023-01-02T02:58:26.131Z,4.88
2023-01-02T03:01:01.336Z,4.90
2023-01-02T03:03:28.049Z,4.91
2023-01-02T03:05:57.496Z,4.93
2023-01-02T03:08:33.057Z,4.93
2023-01-02T03:11:00.974Z,4.95
2023-01-02T03:13:41.819Z,4.95
2023-01-02T03:16:24.047Z,4.92
2023-01-02T03:18:55.586Z,4.95
2023-01-02T03:21:26.581Z,4.97
2023-01-02T03:23:57.031Z,4.97
2023-01-02T03:26:27.193Z,4.99
2023-01-02T03:28:56.461Z,5.00
2023-01-02T03:31:25.201Z,5.00
2023-01-02T03:33:54.186Z,5.01
2023-01-02T03:36:22.791Z,5.01
2023-01-02T03:38:59.428Z,4.99
2023-01-02T03:41:29.040Z,4.91
2023-01-02T03:43:57.283Z,4.88
2023-01-02T03:46:32.292Z,4.90
2023-01-02T03:49:28.364Z,4.94
2023-01-02T03:51:54.811Z,4.97
2023-01-02T03:54:21.649Z,4.95
2023-01-02T03:56:50.989Z,4.94
2023-01-02T03:59:36.160Z,4.95
2023-01-02T04:02:08.722Z,4.96
2023-01-02T04:04:51.092Z,4.96
2023-01-02T04:07:26.933Z,4.97
2023-01-02T04:09:53.517Z,4.97
2023-01-02T04:12:20.868Z,4.99
2023-01-02T04:14:50.355Z,5.00
2023-01-02T04:17:18.671Z,5.01
2023-01-02T04:19:50.168Z,5.00
2023-01-02T04:22:30.757Z,4.95
2023-01-02T04:25:09.863Z,4.94
2023-01-02T04:27:39.332Z,4.97
2023-01-02T04:30:06.098Z,4.97
2023-01-02T04:32:38.825Z,4.95
2023-01-02T04:35:05.999Z,4.94
2023-01-02T04:37:34.584Z,4.94
2023-01-02T04:40:03.328Z,4.97
2023-01-02T04:42:29.859Z,4.97
2023-01-02T04:44:56.284Z,4.99
2023-01-02T04:47:22.762Z,4.99
2023-01-02T04:49:49.247Z,5.00
2023-01-02T04:52:15.718Z,4.98
2023-01-02T04:54:42.149Z,4.97
2023-01-02T04:57:08.627Z,4.97
2023-01-02T04:59:35.051Z,4.93
2023-01-02T05:02:01.549Z,4.90
2023-01-02T05:04:28.060Z,4.89
2023-01-02T05:06:54.482Z,4.90
2023-01-02T05:09:20.965Z,4.93
2023-01-02T05:11:47.413Z,4.94
2023-01-02T05:14:13.825Z,4.94
2023-01-02T05:16:40.272Z,4.90
2023-01-02T05:19:06.734Z,4.87
2023-01-02T05:21:51.736Z,4.89
2023-01-02T05:24:18.271Z,4.90
2023-01-02T05:26:44.700Z,4.92
2023-01-02T05:29:11.142Z,4.93
2023-01-02T05:31:37.843Z,4.94
2023-01-02T05:34:04.333Z,4.95
2023-01-02T05:36:30.753Z,4.94
2023-01-02T05:38:57.490Z,4.93
2023-01-02T05:41:23.992Z,4.94
2023-01-02T05:43:50.488Z,4.94
2023-01-02T05:46:17.941Z,4.95
2023-01-02T05:48:45.135Z,4.94
2023-01-02T05:51:12.740Z,4.91
2023-01-02T05:53:39.407Z,4.91
2023-01-02T05:56:06.046Z,4.92
2023-01-02T05:58:33.424Z,4.94
2023-01-02T06:01:09.169Z,4.95
2023-01-02T06:03:35.761Z,4.97
2023-01-02T06:06:11.359Z,4.97
2023-01-02T06:08:38.378Z,4.95
2023-01-02T06:11:05.152Z,4.96
2023-01-02T06:13:32.273Z,4.97
2023-01-02T06:15:59.988Z,4.96
2023-01-02T06:18:27.166Z,4.95
2023-01-02T06:20:58.516Z,4.89
2023-01-02T06:23:24.971Z,4.90
2023-01-02T06:25:51.434Z,4.90
2023-01-02T06:28:17.924Z,4.90
2023-01-02T06:30:44.348Z,4.92
2023-01-02T06:33:10.814Z,4.93
2023-01-02T06:35:37.288Z,4.88
2023-01-02T06:38:03.723Z,4.87
2023-01-02T06:40:30.174Z,4.88
2023-01-02T06:43:00.043Z,4.90
2023-01-02T06:45:26.842Z,4.92
2023-01-02T06:47:57.893Z,4.91
2023-01-02T06:50:28.611Z,4.85
2023-01-02T06:52:59.339Z,4.82
2023-01-02T06:55:25.855Z,4.80
2023-01-02T06:57:52.284Z,4.81
2023-01-02T07:00:19.197Z,4.80
2023-01-02T07:02:45.806Z,4.81
2023-01-02T07:05:12.918Z,4.82
2023-01-02T07:07:39.405Z,4.81
2023-01-02T07:10:06.027Z,4.81
2023-01-02T07:12:34.594Z,4.81
2023-01-02T07:15:01.034Z,4.85
2023-01-02T07:17:27.476Z,4.89
2023-01-02T07:19:58.241Z,4.90
2023-01-02T07:22:27.446Z,4.88
2023-01-02T07:24:53.865Z,4.87
2023-01-02T07:27:20.407Z,4.90
2023-01-02T07:29:46.830Z,4.93
2023-01-02T07:32:13.292Z,4.97
2023-01-02T07:34:39.734Z,5.02
2023-01-02T07:37:06.184Z,5.05
2023-01-02T07:39:32.620Z,5.02
2023-01-02T07:41:59.053Z,4.97
2023-01-02T07:44:25.480Z,4.93
2023-01-02T07:46:51.972Z,4.94
2023-01-02T07:49:18.410Z,4.98
2023-01-02T07:51:44.919Z,5.00
2023-01-02T07:54:11.350Z,4.99
2023-01-02T07:56:37.801Z,5.02
2023-01-02T07:59:04.282Z,5.02
2023-01-02T08:01:30.824Z,5.02
2023-01-02T08:03:57.312Z,5.08
2023-01-02T08:06:23.840Z,5.15
2023-01-02T08:08:50.300Z,5.17
2023-01-02T08:11:21.130Z,5.17
2023-01-02T08:13:47.819Z,5.19
2023-01-02T08:16:15.695Z,5.20
2023-01-02T08:18:42.198Z,5.20
2023-01-02T08:21:10.646Z,5.21
2023-01-02T08:23:37.600Z,5.23
2023-01-02T08:26:05.681Z,5.27
2023-01-02T08:28:32.864Z,5.27
2023-01-02T08:31:00.382Z,5.31
2023-01-02T08:33:27.083Z,5.36
2023-01-02T08:35:53.871Z,5.41
2023-01-02T08:38:20.310Z,5.43
2023-01-02T08:40:46.738Z,5.43
2023-01-02T08:43:13.220Z,5.44
2023-01-02T08:45:39.732Z,5.49
2023-01-02T08:48:19.609Z,5.52
2023-01-02T08:50:47.611Z,5.56
2023-01-02T08:53:14.047Z,5.60
2023-01-02T08:55:40.512Z,5.63
2023-01-02T08:58:06.962Z,5.64
2023-01-02T09:00:33.437Z,5.67
2023-01-02T09:03:00.002Z,5.70
2023-01-02T09:05:29.131Z,5.75
2023-01-02T09:07:55.708Z,5.78
2023-01-02T09:10:22.564Z,5.80
2023-01-02T09:12:49.065Z,5.85
2023-01-02T09:15:15.610Z,5.88
2023-01-02T09:17:42.070Z,5.89
2023-01-02T09:20:09.042Z,5.90
2023-01-02T09:22:35.678Z,5.96
2023-01-02T09:25:02.133Z,6.02
2023-01-02T09:27:28.628Z,6.06
2023-01-02T09:29:55.134Z,6.08
2023-01-02T09:32:21.630Z,6.12
2023-01-02T09:34:50.466Z,6.17
2023-01-02T09:37:17.631Z,6.19
2023-01-02T09:39:44.261Z,6.22
2023-01-02T09:42:14.497Z,6.25
2023-01-02T09:44:43.438Z,6.29
2023-01-02T09:47:12.870Z,6.33
2023-01-02T09:49:39.270Z,6.38
2023-01-02T09:52:07.376Z,6.43
2023-01-02T09:54:33.963Z,6.48
2023-01-02T09:57:10.028Z,6.52
2023-01-02T09:59:41.860Z,6.58
2023-01-02T10:02:14.408Z,6.62
2023-01-02T10:04:53.125Z,6.68
2023-01-02T10:07:35.004Z,6.76
2023-01-02T10:10:01.488Z,6.84
2023-01-02T10:12:33.024Z,6.91
2023-01-02T10:15:01.567Z,7.00
2023-01-02T10:17:29.561Z,7.07
2023-01-02T10:20:22.035Z,7.13
2023-01-02T10:22:53.297Z,7.23
2023-01-02T10:25:19.851Z,7.30
2023-01-02T10:27:50.123Z,7.36
2023-01-02T10:30:24.389Z,7.44
2023-01-02T10:32:57.368Z,7.49
2023-01-02T10:35:32.468Z,7.51
2023-01-02T10:37:59.023Z,7.54
2023-01-02T10:40:25.601Z,7.57
2023-01-02T10:42:59.397Z,7.60
2023-01-02T10:45:26.479Z,7.63
2023-01-02T10:47:53.023Z,7.65
2023-01-02T10:50:25.450Z,7.66
2023-01-02T10:53:06.305Z,7.66
2023-01-02T10:55:41.008Z,7.69
2023-01-02T10:58:16.383Z,7.73
2023-01-02T11:00:42.906Z,7.75
2023-01-02T11:03:12.229Z,7.77
2023-01-02T11:05:44.632Z,7.78
2023-01-02T11:08:15.205Z,7.79
2023-01-02T11:10:42.055Z,7.81
2023-01-02T11:13:12.871Z,7.85
2023-01-02T11:15:51.570Z,7.86
2023-01-02T11:18:22.786Z,7.88
2023-01-02T11:20:52.180Z,7.92
2023-01-02T11:23:20.844Z,7.94
2023-01-02T11:25:47.585Z,7.94
2023-01-02T11:28:16.904Z,7.93
2023-01-02T11:30:45.042Z,7.99
2023-01-02T11:33:14.242Z,7.96
2023-01-02T11:35:48.646Z,7.98
2023-01-02T11:38:29.399Z,8.01
2023-01-02T11:41:01.657Z,8.04
2023-01-02T11:43:50.278Z,8.07
2023-01-02T11:46:26.648Z,8.04
2023-01-02T11:48:56.156Z,8.06
2023-01-02T11:51:23.120Z,8.08
2023-01-02T11:53:52.581Z,8.10
2023-01-02T11:56:24.100Z,8.12
2023-01-02T11:58:50.511Z,8.19
2023-01-02T12:01:29.087Z,8.22
2023-01-02T12:03:56.375Z,8.22
2023-01-02T12:06:22.897Z,8.22
2023-01-02T12:08:52.139Z,8.26
2023-01-02T12:11:18.555Z,8.27
2023-01-02T12:13:53.598Z,8.29
2023-01-02T12:16:20.049Z,8.32
2023-01-02T12:18:46.473Z,8.33
2023-01-02T12:21:20.258Z,8.32
2023-01-02T12:23:57.893Z,8.30
2023-01-02T12:26:34.781Z,8.32
2023-01-02T12:29:47.412Z,8.36
2023-01-02T12:32:10.259Z,8.41
2023-01-02T12:34:39.879Z,8.43
2023-01-02T12:37:21.657Z,8.43
2023-01-02T12:40:04.138Z,8.43
2023-01-02T12:42:33.435Z,8.45
2023-01-02T12:45:00.368Z,8.45
2023-01-02T12:47:42.334Z,8.45
2023-01-02T12:50:25.101Z,8.48
2023-01-02T12:52:58.004Z,8.47
2023-01-02T12:55:30.520Z,8.47
2023-01-02T12:57:56.947Z,8.48
2023-01-02T13:00:42.179Z,8.51
2023-01-02T13:03:14.588Z,8.53
2023-01-02T13:05:48.031Z,8.54
2023-01-02T13:08:20.680Z,8.52
2023-01-02T13:10:48.218Z,8.54
2023-01-02T13:13:15.812Z,8.59
2023-01-02T13:15:44.275Z,8.57
2023-01-02T13:18:17.264Z,8.57
2023-01-02T13:20:48.220Z,8.59
2023-01-02T13:23:23.852Z,8.59
2023-01-02T13:25:55.492Z,8.60
2023-01-02T13:28:24.515Z,8.61
2023-01-02T13:30:57.575Z,8.59
2023-01-02T13:33:40.864Z,8.63
2023-01-02T13:36:17.382Z,8.64
2023-01-02T13:38:45.423Z,8.68
2023-01-02T13:41:14.116Z,8.71
2023-01-02T13:43:40.700Z,8.76
2023-01-02T13:46:19.246Z,8.74
2023-01-02T13:48:59.632Z,8.77
2023-01-02T13:51:28.089Z,8.77
2023-01-02T13:53:54.793Z,8.77
2023-01-02T13:56:28.801Z,8.79
2023-01-02T13:59:42.636Z,8.79
2023-01-02T14:02:15.869Z,8.80
2023-01-02T14:04:43.603Z,8.79
2023-01-02T14:07:33.415Z,8.82
2023-01-02T14:10:20.588Z,8.82
2023-01-02T14:13:07.467Z,8.83
2023-01-02T14:15:40.770Z,8.82
2023-01-02T14:18:10.980Z,8.82
2023-01-02T14:20:42.517Z,8.79
2023-01-02T14:23:10.886Z,8.75
2023-01-02T14:25:49.108Z,8.71
2023-01-02T14:28:23.564Z,8.70
2023-01-02T14:30:50.563Z,8.75
2023-01-02T14:33:21.985Z,8.76
2023-01-02T14:35:50.344Z,8.77
2023-01-02T14:38:19.011Z,8.76
2023-01-02T14:40:46.379Z,8.78
2023-01-02T14:43:30.862Z,8.79
2023-01-02T14:46:07.295Z,8.77
2023-01-02T14:48:52.691Z,8.77
2023-01-02T14:51:26.710Z,8.71
2023-01-02T14:53:55.253Z,8.69
2023-01-02T14:56:23.958Z,8.68
2023-01-02T14:58:51.354Z,8.65
2023-01-02T15:01:42.379Z,8.59
2023-01-02T15:04:09.142Z,8.55
2023-01-02T15:06:42.546Z,8.58
2023-01-02T15:09:12.684Z,8.52
2023-01-02T15:12:10.002Z,8.46
2023-01-02T15:14:37.961Z,8.46
2023-01-02T15:17:07.953Z,8.42
2023-01-02T15:19:34.864Z,8.37
2023-01-02T15:22:16.262Z,8.32
2023-01-02T15:24:47.370Z,8.31
2023-01-02T15:27:13.844Z,8.24
2023-01-02T15:29:47.629Z,8.20
2023-01-02T15:32:21.525Z,8.23
2023-01-02T15:34:50.438Z,8.28
2023-01-02T15:37:18.244Z,8.27
2023-01-02T15:39:46.727Z,8.29
2023-01-02T15:42:37.511Z,8.22
2023-01-02T15:45:11.999Z,8.23
2023-01-02T15:47:40.285Z,8.21
2023-01-02T15:50:10.890Z,8.14
2023-01-02T15:52:37.467Z,8.14
2023-01-02T15:55:04.078Z,8.16
2023-01-02T15:57:34.142Z,8.12
2023-01-02T16:00:01.153Z,8.10
2023-01-02T16:02:32.093Z,8.12
2023-01-02T16:05:28.385Z,8.09
2023-01-02T16:07:56.677Z,8.08
2023-01-02T16:10:24.465Z,8.08
2023-01-02T16:12:56.382Z,8.03
2023-01-02T16:15:28.475Z,7.97
2023-01-02T16:17:56.133Z,7.98
2023-01-02T16:20:23.623Z,7.99
2023-01-02T16:22:52.136Z,7.99
2023-01-02T16:25:22.963Z,7.96
2023-01-02T16:27:49.465Z,7.95
2023-01-02T16:30:38.265Z,7.94
2023-01-02T16:33:19.336Z,7.92
2023-01-02T16:35:59.871Z,7.93
2023-01-02T16:38:27.293Z,7.94
2023-01-02T16:41:12.049Z,7.97
2023-01-02T16:43:45.559Z,7.99
2023-01-02T16:46:13.952Z,8.01
2023-01-02T16:48:41.516Z,8.08
2023-01-02T16:51:08.039Z,8.08
2023-01-02T16:53:34.640Z,8.09
2023-01-02T16:56:01.148Z,8.11
2023-01-02T16:58:27.667Z,8.08
2023-01-02T17:00:55.726Z,8.08
2023-01-02T17:03:23.858Z,8.05
2023-01-02T17:06:01.891Z,8.03
2023-01-02T17:08:30.417Z,8.02
2023-01-02T17:10:58.899Z,8.01
2023-01-02T17:13:25.875Z,7.99
2023-01-02T17:15:52.308Z,7.96
2023-01-02T17:18:18.865Z,7.91
2023-01-02T17:20:45.307Z,7.85
2023-01-02T17:23:11.855Z,7.77
2023-01-02T17:25:40.432Z,7.72
2023-01-02T17:28:07.077Z,7.65
2023-01-02T17:30:33.538Z,7.58
2023-01-02T17:33:03.927Z,7.49
2023-01-02T17:35:30.940Z,7.42
2023-01-02T17:37:57.437Z,7.34
2023-01-02T17:40:23.873Z,7.27
2023-01-02T17:42:50.304Z,7.20
2023-01-02T17:45:16.784Z,7.16
2023-01-02T17:50:29.793Z,7.05
2023-01-02T17:52:56.265Z,6.98
2023-01-02T17:55:22.703Z,6.93
2023-01-02T17:57:49.181Z,6.88
2023-01-02T18:00:15.913Z,6.81
2023-01-02T18:02:42.420Z,6.74
2023-01-02T18:05:09.505Z,6.68
2023-01-02T18:07:35.999Z,6.64
2023-01-02T18:10:09.333Z,6.60
2023-01-02T18:12:37.846Z,6.55
2023-01-02T18:15:10.115Z,6.48
2023-01-02T18:17:36.552Z,6.41
2023-01-02T18:20:06.077Z,6.35
2023-01-02T18:22:32.650Z,6.27
2023-01-02T18:24:59.700Z,6.28
2023-01-02T18:27:30.127Z,6.34
2023-01-02T18:29:58.566Z,6.30
2023-01-02T18:32:30.888Z,6.25
2023-01-02T18:35:00.470Z,6.19
2023-01-02T18:37:30.511Z,6.21
2023-01-02T18:39:57.366Z,6.20
2023-01-02T18:42:28.861Z,6.17
2023-01-02T18:44:57.960Z,6.14
2023-01-02T18:47:30.122Z,6.12
2023-01-02T18:49:58.399Z,6.09
2023-01-02T18:52:26.493Z,6.06
2023-01-02T18:55:13.157Z,6.03
2023-01-02T18:57:47.409Z,5.99
2023-01-02T19:00:14.397Z,5.97
2023-01-02T19:02:43.745Z,5.95
2023-01-02T19:05:18.809Z,5.95
2023-01-02T19:07:45.303Z,5.93
2023-01-02T19:10:32.792Z,5.91
2023-01-02T19:13:07.068Z,5.86
2023-01-02T19:15:35.793Z,5.88
2023-01-02T19:18:19.795Z,5.88
2023-01-02T19:20:47.924Z,5.88
2023-01-02T19:23:14.334Z,5.85
2023-01-02T19:25:41.207Z,5.83
2023-01-02T19:28:16.843Z,5.84
2023-01-02T19:30:45.713Z,5.79
2023-01-02T19:33:30.917Z,5.77
2023-01-02T19:35:59.608Z,5.75
2023-01-02T19:38:27.893Z,5.72
2023-01-02T19:40:54.372Z,5.69
2023-01-02T19:43:20.955Z,5.69
2023-01-02T19:45:47.847Z,5.65
2023-01-02T19:48:18.094Z,5.63
2023-01-02T19:50:45.294Z,5.60
2023-01-02T19:53:11.768Z,5.53
2023-01-02T19:55:38.199Z,5.46
2023-01-02T19:58:04.953Z,5.43
2023-01-02T20:00:31.498Z,5.41
2023-01-02T20:02:58.240Z,5.40
2023-01-02T20:05:25.005Z,5.33
2023-01-02T20:07:52.523Z,5.32
2023-01-02T20:10:19.089Z,5.32
2023-01-02T20:12:45.593Z,5.30
2023-01-02T20:15:12.083Z,5.30
2023-01-02T20:17:39.197Z,5.27
2023-01-02T20:20:07.571Z,5.24
2023-01-02T20:22:34.302Z,5.18
2023-01-02T20:25:00.895Z,5.16
2023-01-02T20:27:27.332Z,5.17
2023-01-02T20:29:56.669Z,5.16
2023-01-02T20:32:23.959Z,5.17
2023-01-02T20:34:50.812Z,5.10
2023-01-02T20:37:21.052Z,5.12
2023-01-02T20:39:48.581Z,5.10
2023-01-02T20:42:15.029Z,5.11
2023-01-02T20:44:42.858Z,5.14
2023-01-02T20:47:09.381Z,5.17
2023-01-02T20:49:35.845Z,5.19
2023-01-02T20:52:03.221Z,5.19
2023-01-02T20:54:30.039Z,5.21
2023-01-02T20:56:56.505Z,5.21
2023-01-02T20:59:23.466Z,5.22
2023-01-02T21:01:50.050Z,5.18
2023-01-02T21:04:22.557Z,5.19
2023-01-02T21:06:54.789Z,5.19
2023-01-02T21:09:21.262Z,5.21
2023-01-02T21:11:47.728Z,5.25
2023-01-02T21:14:14.195Z,5.24
2023-01-02T21:16:40.673Z,5.24
2023-01-02T21:19:07.199Z,5.26
2023-01-02T21:21:33.653Z,5.29
2023-01-02T21:24:00.128Z,5.31
2023-01-02T21:26:26.599Z,5.31
2023-01-02T21:28:53.035Z,5.28
2023-01-02T21:31:20.052Z,5.31
2023-01-02T21:33:47.002Z,5.35
2023-01-02T21:36:15.498Z,5.40
2023-01-02T21:38:42.476Z,5.39
2023-01-02T21:41:27.326Z,5.39
2023-01-02T21:43:53.817Z,5.35
2023-01-02T21:46:20.351Z,5.35
2023-01-02T21:48:46.840Z,5.37
2023-01-02T21:51:13.852Z,5.43
2023-01-02T21:53:40.448Z,5.46
2023-01-02T21:56:07.257Z,5.50
2023-01-02T21:58:33.689Z,5.51
2023-01-02T22:01:00.263Z,5.51
2023-01-02T22:03:26.862Z,5.55
2023-01-02T22:05:53.866Z,5.51
2023-01-02T22:08:20.372Z,5.51
2023-01-02T22:10:47.771Z,5.50
2023-01-02T22:13:14.279Z,5.50
2023-01-02T22:15:40.779Z,5.50
2023-01-02T22:18:07.477Z,5.53
2023-01-02T22:20:33.986Z,5.45
2023-01-02T22:23:00.490Z,5.45
2023-01-02T22:25:27.203Z,5.48
2023-01-02T22:27:53.764Z,5.52
2023-01-02T22:30:24.677Z,5.53
2023-01-02T22:32:54.216Z,5.52
2023-01-02T22:35:20.740Z,5.53
2023-01-02T22:37:47.170Z,5.54
2023-01-02T22:40:13.693Z,5.55
2023-01-02T22:43:04.258Z,5.58
2023-01-02T22:45:34.472Z,5.58
2023-01-02T22:48:03.656Z,5.61
2023-01-02T22:50:32.580Z,5.65
2023-01-02T22:52:59.881Z,5.68
2023-01-02T22:55:26.391Z,5.70
2023-01-02T22:57:52.800Z,5.76
2023-01-02T23:00:22.350Z,5.85
2023-01-02T23:02:49.677Z,5.94
2023-01-02T23:05:20.653Z,6.00
2023-01-02T23:07:49.530Z,6.02
2023-01-02T23:10:16.387Z,6.05
2023-01-02T23:12:42.827Z,6.08
2023-01-02T23:15:11.466Z,6.10
2023-01-02T23:18:10.314Z,6.13
2023-01-02T23:20:36.750Z,6.16
2023-01-02T23:23:03.221Z,6.20
2023-01-02T23:25:29.755Z,6.21
2023-01-02T23:27:56.234Z,6.24
2023-01-02T23:30:22.664Z,6.23
2023-01-02T23:32:49.205Z,6.24
2023-01-02T23:35:15.636Z,6.22
2023-01-02T23:37:42.051Z,6.27
2023-01-02T23:40:08.881Z,6.31
2023-01-02T23:42:35.317Z,6.35
2023-01-02T23:45:02.174Z,6.36
2023-01-02T23:47:28.703Z,6.39
2023-01-02T23:49:55.143Z,6.40
2023-01-02T23:52:21.616Z,6.42
2023-01-02T23:54:48.064Z,6.46
2023-01-02T23:57:14.511Z,6.43
2023-01-02T23:59:41.001Z,6.44
